Time;durP1;ratioP1;P1;durP2;ratioP2;P2;SDS_P1;SDS_P2;PMS_P1;PMS_P2;Temp;Humidity;BMP_temperature;BMP_pressure;BME280_temperature;BME280_humidity;BME280_pressure;Samples;Min_cycle;Max_cycle;Signal;HPM_P1;HPM_P2
2023/01/14 00:00:23;;;;;;;5.07;2.17;;;;;;;;;;5090799;28;20235;-53
2023/01/14 00:02:48;;;;;;;7.17;2.00;;;;;;;;;;5090710;28;20286;-53
2023/01/14 00:05:16;;;;;;;3.47;1.83;;;;;;;;;;5090213;28;20289;-54
2023/01/14 00:07:42;;;;;;;6.00;2.40;;;;;;;;;;5089817;28;20305;-53
2023/01/14 00:10:09;;;;;;;4.47;2.07;;;;;;;;;;5090822;28;20281;-53
2023/01/14 00:12:35;;;;;;;4.40;1.77;;;;;;;;;;5090790;28;20195;-53
2023/01/14 00:15:01;;;;;;;6.00;2.00;;;;;;;;;;5090480;28;20213;-53
2023/01/14 00:17:27;;;;;;;4.60;2.27;;;;;;;;;;5090289;28;20575;-53
2023/01/14 00:19:53;;;;;;;6.97;2.23;;;;;;;;;;5090376;28;20254;-54
2023/01/14 00:22:20;;;;;;;5.03;2.43;;;;;;;;;;5090331;28;20292;-53
2023/01/14 00:24:46;;;;;;;3.67;1.90;;;;;;;;;;5090632;28;20199;-53
2023/01/14 00:27:15;;;;;;;3.57;1.53;;;;;;;;;;5090454;28;20202;-53
2023/01/14 00:29:41;;;;;;;4.67;2.00;;;;;;;;;;5090492;28;20683;-53
2023/01/14 00:32:07;;;;;;;9.83;2.37;;;;;;;;;;5090081;28;20266;-53
2023/01/14 00:34:36;;;;;;;4.70;2.03;;;;;;;;;;5089735;28;20496;-54
2023/01/14 00:37:02;;;;;;;4.30;2.00;;;;;;;;;;5090021;28;21030;-53
2023/01/14 00:39:29;;;;;;;5.40;2.10;;;;;;;;;;5090388;28;20226;-53
2023/01/14 00:41:55;;;;;;;6.67;2.10;;;;;;;;;;5090261;28;20619;-53
2023/01/14 00:44:21;;;;;;;5.43;2.23;;;;;;;;;;5089993;28;20277;-52
2023/01/14 00:46:48;;;;;;;6.17;3.00;;;;;;;;;;5090125;28;20213;-52
2023/01/14 00:49:14;;;;;;;3.63;2.10;;;;;;;;;;5089980;28;20199;-53
2023/01/14 00:51:40;;;;;;;6.30;2.00;;;;;;;;;;5090086;28;20195;-50
2023/01/14 00:54:06;;;;;;;6.73;2.43;;;;;;;;;;5090670;28;20281;-52
2023/01/14 00:56:34;;;;;;;5.80;2.07;;;;;;;;;;5089784;28;20570;-51
2023/01/14 00:59:00;;;;;;;4.47;2.10;;;;;;;;;;5090042;28;20591;-51
2023/01/14 01:01:26;;;;;;;4.30;2.03;;;;;;;;;;5089818;28;20228;-51
2023/01/14 01:03:53;;;;;;;6.07;2.13;;;;;;;;;;5089952;28;20210;-52
2023/01/14 01:06:21;;;;;;;8.17;2.20;;;;;;;;;;5090227;28;20256;-52
2023/01/14 01:08:47;;;;;;;7.63;2.30;;;;;;;;;;5089640;28;20302;-53
2023/01/14 01:11:13;;;;;;;4.03;1.80;;;;;;;;;;5088055;28;20202;-52
2023/01/14 01:13:40;;;;;;;5.17;2.10;;;;;;;;;;5089640;28;20207;-53
2023/01/14 01:16:07;;;;;;;5.50;1.93;;;;;;;;;;5089475;28;20286;-53
2023/01/14 01:18:34;;;;;;;6.27;2.07;;;;;;;;;;5089500;28;20194;-54
2023/01/14 01:21:00;;;;;;;8.90;2.20;;;;;;;;;;5089315;28;20469;-52
2023/01/14 01:23:26;;;;;;;6.93;2.37;;;;;;;;;;5089665;28;20222;-53
2023/01/14 01:25:58;;;;;;;6.40;2.50;;;;;;;;;;5089426;28;20601;-53
2023/01/14 01:28:24;;;;;;;7.10;1.87;;;;;;;;;;5089572;28;20195;-53
2023/01/14 01:30:51;;;;;;;5.77;2.03;;;;;;;;;;5089639;28;20195;-54
2023/01/14 01:33:17;;;;;;;5.07;2.23;;;;;;;;;;5089675;28;20217;-53
2023/01/14 01:35:43;;;;;;;4.10;2.50;;;;;;;;;;5089206;28;20717;-53
2023/01/14 01:38:09;;;;;;;9.10;2.43;;;;;;;;;;5089636;28;20198;-53
2023/01/14 01:40:35;;;;;;;5.93;2.70;;;;;;;;;;5089307;28;20222;-52
2023/01/14 01:43:01;;;;;;;6.00;1.90;;;;;;;;;;5089407;28;20221;-53
2023/01/14 01:45:38;;;;;;;5.03;2.23;;;;;;;;;;5089557;28;20202;-53
2023/01/14 01:48:07;;;;;;;6.10;1.80;;;;;;;;;;5093463;28;20199;-53
2023/01/14 01:50:33;;;;;;;4.13;1.70;;;;;;;;;;5093181;28;20187;-53
2023/01/14 01:53:00;;;;;;;6.10;2.10;;;;;;;;;;5093309;28;20198;-53
2023/01/14 01:55:26;;;;;;;6.40;2.03;;;;;;;;;;5093325;28;20198;-53
2023/01/14 01:57:55;;;;;;;8.67;2.40;;;;;;;;;;5092718;28;20723;-53
2023/01/14 02:00:21;;;;;;;5.17;1.80;;;;;;;;;;5092900;28;20238;-53
2023/01/14 02:02:49;;;;;;;4.97;2.27;;;;;;;;;;5093093;28;20203;-53
2023/01/14 02:05:16;;;;;;;5.20;2.47;;;;;;;;;;5092895;28;20206;-53
2023/01/14 02:07:43;;;;;;;9.87;2.73;;;;;;;;;;5092840;28;20661;-53
2023/01/14 02:10:10;;;;;;;5.87;2.10;;;;;;;;;;5093075;28;20657;-53
2023/01/14 02:12:39;;;;;;;5.60;2.37;;;;;;;;;;5092666;28;20194;-53
2023/01/14 02:15:12;;;;;;;5.07;2.17;;;;;;;;;;5092547;28;20201;-53
2023/01/14 02:17:43;;;;;;;5.00;1.93;;;;;;;;;;5092664;28;20202;-53
2023/01/14 02:20:19;;;;;;;4.70;2.30;;;;;;;;;;5092845;28;20227;-53
2023/01/14 02:22:59;;;;;;;5.47;2.30;;;;;;;;;;5092500;28;20228;-53
2023/01/14 02:25:32;;;;;;;5.87;2.03;;;;;;;;;;5092596;28;20190;-52
2023/01/14 02:28:00;;;;;;;5.93;2.27;;;;;;;;;;5092307;28;20199;-53
2023/01/14 02:30:44;;;;;;;8.53;2.70;;;;;;;;;;5092330;28;20563;-53
2023/01/14 02:33:16;;;;;;;7.30;2.23;;;;;;;;;;5092145;28;20210;-53
2023/01/14 02:35:44;;;;;;;6.13;2.47;;;;;;;;;;5092343;28;20230;-53
2023/01/14 02:38:14;;;;;;;7.60;3.00;;;;;;;;;;5092279;28;20551;-52
2023/01/14 02:40:43;;;;;;;6.33;2.00;;;;;;;;;;5092082;28;20262;-53
2023/01/14 02:45:59;;;;;;;8.40;2.60;;;;;;;;;;5092065;28;20708;-52
2023/01/14 02:48:27;;;;;;;6.67;2.30;;;;;;;;;;5092150;28;20198;-53
2023/01/14 02:50:53;;;;;;;7.67;2.20;;;;;;;;;;5091840;28;20199;-53
2023/01/14 02:53:20;;;;;;;10.77;2.40;;;;;;;;;;5092061;28;20230;-53
2023/01/14 02:55:47;;;;;;;9.87;3.23;;;;;;;;;;5091812;28;20255;-53
2023/01/14 02:58:32;;;;;;;6.87;2.40;;;;;;;;;;5090973;28;20726;-53
2023/01/14 03:01:03;;;;;;;8.67;2.80;;;;;;;;;;5091656;28;20231;-52
2023/01/14 03:03:37;;;;;;;8.17;3.10;;;;;;;;;;5091931;28;20183;-53
2023/01/14 03:06:21;;;;;;;8.90;2.60;;;;;;;;;;5091711;28;20212;-52
2023/01/14 03:08:49;;;;;;;12.17;2.67;;;;;;;;;;5091674;28;20198;-53
2023/01/14 03:11:15;;;;;;;8.37;2.80;;;;;;;;;;5091730;28;20203;-52
2023/01/14 03:13:47;;;;;;;8.37;2.30;;;;;;;;;;5091856;28;20206;-53
2023/01/14 03:16:15;;;;;;;9.73;2.87;;;;;;;;;;5091644;28;20202;-53
2023/01/14 03:18:45;;;;;;;8.20;3.10;;;;;;;;;;5091271;28;20248;-52
2023/01/14 03:21:13;;;;;;;10.20;3.07;;;;;;;;;;5091305;28;20230;-53
2023/01/14 03:23:42;;;;;;;6.63;2.70;;;;;;;;;;5091262;28;20591;-53
2023/01/14 03:26:09;;;;;;;8.43;2.63;;;;;;;;;;5091507;28;20702;-53
2023/01/14 03:28:38;;;;;;;10.83;3.30;;;;;;;;;;5091208;28;20633;-53
2023/01/14 03:31:06;;;;;;;7.80;3.10;;;;;;;;;;5091127;28;20203;-53
2023/01/14 03:33:34;;;;;;;13.97;4.13;;;;;;;;;;5091363;28;20233;-53
2023/01/14 03:36:02;;;;;;;7.40;2.83;;;;;;;;;;5091045;28;20755;-53
2023/01/14 03:38:30;;;;;;;9.30;3.50;;;;;;;;;;5091079;28;20669;-53
2023/01/14 03:40:57;;;;;;;9.33;3.63;;;;;;;;;;5090924;28;20288;-53
2023/01/14 03:43:27;;;;;;;9.97;3.83;;;;;;;;;;5091218;28;20325;-53
2023/01/14 03:45:53;;;;;;;9.67;3.90;;;;;;;;;;5090853;28;20284;-52
2023/01/14 03:48:19;;;;;;;11.13;3.97;;;;;;;;;;5090760;28;20228;-53
2023/01/14 03:50:50;;;;;;;9.33;3.73;;;;;;;;;;5090811;28;20556;-53
2023/01/14 03:53:21;;;;;;;7.80;3.50;;;;;;;;;;5090962;28;20209;-52
2023/01/14 03:55:53;;;;;;;17.87;3.97;;;;;;;;;;5090719;28;20199;-53
2023/01/14 03:58:23;;;;;;;12.93;4.00;;;;;;;;;;5090670;28;20673;-53
2023/01/14 04:00:52;;;;;;;13.23;3.83;;;;;;;;;;5090455;28;20219;-53
2023/01/14 04:03:18;;;;;;;10.77;4.10;;;;;;;;;;5090612;28;20672;-53
2023/01/14 04:05:45;;;;;;;14.83;4.27;;;;;;;;;;5090602;28;20195;-53
2023/01/14 04:08:11;;;;;;;16.23;4.73;;;;;;;;;;5090456;28;20852;-53
2023/01/14 04:10:38;;;;;;;16.57;4.43;;;;;;;;;;5090685;28;20279;-53
2023/01/14 04:15:49;;;;;;;18.43;4.30;;;;;;;;;;5090403;28;20587;-54
2023/01/14 04:18:15;;;;;;;12.50;4.07;;;;;;;;;;5090495;28;20195;-53
2023/01/14 04:20:41;;;;;;;11.50;3.90;;;;;;;;;;5090514;28;20227;-53
2023/01/14 04:23:07;;;;;;;18.50;4.90;;;;;;;;;;5090446;28;20190;-53
2023/01/14 04:25:33;;;;;;;12.20;3.97;;;;;;;;;;5090280;28;20195;-52
2023/01/14 04:28:00;;;;;;;10.90;3.87;;;;;;;;;;5090461;28;20214;-53
2023/01/14 04:30:26;;;;;;;21.40;4.90;;;;;;;;;;5090479;28;20210;-53
2023/01/14 04:32:52;;;;;;;10.53;4.10;;;;;;;;;;5090040;28;20201;-52
2023/01/14 04:35:18;;;;;;;14.70;4.00;;;;;;;;;;5090305;28;20328;-53
2023/01/14 04:37:44;;;;;;;18.93;4.60;;;;;;;;;;5090120;28;20256;-52
2023/01/14 04:40:10;;;;;;;17.47;4.60;;;;;;;;;;5089989;28;20229;-52
2023/01/14 04:42:36;;;;;;;15.23;4.43;;;;;;;;;;5090248;28;20269;-52
2023/01/14 04:45:05;;;;;;;11.80;4.17;;;;;;;;;;5089898;28;20655;-52
2023/01/14 04:47:31;;;;;;;12.10;5.07;;;;;;;;;;5090010;28;20331;-52
2023/01/14 04:49:57;;;;;;;15.33;4.83;;;;;;;;;;5089881;28;20669;-52
2023/01/14 04:52:23;;;;;;;10.20;4.17;;;;;;;;;;5089920;28;20204;-52
2023/01/14 04:54:50;;;;;;;15.77;4.40;;;;;;;;;;5089944;28;20228;-52
2023/01/14 04:57:16;;;;;;;11.93;4.27;;;;;;;;;;5090078;28;20211;-52
2023/01/14 04:59:42;;;;;;;18.77;5.47;;;;;;;;;;5089927;28;20598;-53
2023/01/14 05:02:09;;;;;;;15.53;4.43;;;;;;;;;;5090049;28;20218;-52
2023/01/14 05:04:35;;;;;;;13.93;4.70;;;;;;;;;;5089977;28;20770;-52
2023/01/14 05:07:02;;;;;;;14.67;3.60;;;;;;;;;;5089819;28;20225;-52
2023/01/14 05:09:28;;;;;;;11.17;3.53;;;;;;;;;;5089997;28;20198;-53
2023/01/14 05:11:54;;;;;;;11.70;4.13;;;;;;;;;;5089484;28;20199;-53
2023/01/14 05:14:20;;;;;;;17.57;4.83;;;;;;;;;;5089995;28;20190;-52
2023/01/14 05:16:46;;;;;;;14.67;3.80;;;;;;;;;;5089573;28;20593;-52
2023/01/14 05:19:13;;;;;;;19.00;3.97;;;;;;;;;;5089633;28;20331;-53
2023/01/14 05:21:39;;;;;;;18.80;4.37;;;;;;;;;;5091731;28;20230;-52
2023/01/14 05:24:05;;;;;;;12.60;4.27;;;;;;;;;;5093550;28;20194;-52
2023/01/14 05:26:31;;;;;;;13.60;4.17;;;;;;;;;;5093833;28;20194;-52
2023/01/14 05:28:57;;;;;;;17.23;4.23;;;;;;;;;;5093321;28;20665;-52
2023/01/14 05:31:23;;;;;;;18.17;4.43;;;;;;;;;;5093721;28;20288;-52
2023/01/14 05:33:49;;;;;;;13.27;4.30;;;;;;;;;;5093714;28;20259;-53
2023/01/14 05:36:16;;;;;;;11.20;3.70;;;;;;;;;;5093437;28;20249;-52
2023/01/14 05:38:42;;;;;;;11.07;4.30;;;;;;;;;;5093621;28;20207;-53
2023/01/14 05:41:11;;;;;;;17.10;4.83;;;;;;;;;;5093029;28;20234;-52
2023/01/14 05:46:22;;;;;;;17.20;4.30;;;;;;;;;;5093591;28;20740;-52
2023/01/14 05:48:48;;;;;;;14.90;3.87;;;;;;;;;;5093102;28;20294;-52
2023/01/14 05:51:14;;;;;;;9.80;3.30;;;;;;;;;;5093508;28;20252;-52
2023/01/14 05:53:42;;;;;;;19.63;4.80;;;;;;;;;;5093195;28;20194;-52
2023/01/14 05:56:08;;;;;;;15.67;3.67;;;;;;;;;;5092832;28;20570;-52
2023/01/14 05:58:34;;;;;;;11.60;4.23;;;;;;;;;;5093224;28;20221;-52
2023/01/14 06:06:32;;;;;;;16.43;4.13;;;;;;;;;;5093127;28;20652;-52
2023/01/14 06:09:00;;;;;;;15.30;4.43;;;;;;;;;;5092734;28;20551;-53
2023/01/14 06:11:27;;;;;;;15.87;4.10;;;;;;;;;;5092819;28;20203;-52
2023/01/14 06:13:55;;;;;;;14.17;4.50;;;;;;;;;;5092874;28;20248;-52
2023/01/14 06:16:21;;;;;;;13.43;4.00;;;;;;;;;;5092780;28;20191;-52
2023/01/14 06:18:47;;;;;;;17.33;4.57;;;;;;;;;;5092719;28;20255;-52
2023/01/14 06:21:14;;;;;;;14.53;3.93;;;;;;;;;;5092646;28;20227;-52
2023/01/14 06:23:40;;;;;;;15.87;5.00;;;;;;;;;;5092425;28;20206;-52
2023/01/14 06:26:09;;;;;;;19.87;5.30;;;;;;;;;;5092575;28;20698;-52
2023/01/14 06:28:35;;;;;;;17.77;4.97;;;;;;;;;;5092753;28;20201;-52
2023/01/14 06:31:01;;;;;;;18.47;5.47;;;;;;;;;;5092381;28;20700;-52
2023/01/14 06:33:27;;;;;;;17.33;5.57;;;;;;;;;;5091319;28;20199;-52
2023/01/14 06:35:55;;;;;;;18.17;5.57;;;;;;;;;;5092049;28;20287;-52
2023/01/14 06:38:22;;;;;;;19.80;6.37;;;;;;;;;;5092296;28;20203;-53
2023/01/14 06:40:48;;;;;;;18.83;6.00;;;;;;;;;;5092249;28;20696;-52
2023/01/14 06:43:15;;;;;;;18.60;5.90;;;;;;;;;;5092247;28;20205;-53
2023/01/14 06:45:41;;;;;;;20.53;7.80;;;;;;;;;;5092374;28;20207;-52
2023/01/14 06:48:07;;;;;;;18.43;6.40;;;;;;;;;;5092034;28;20448;-53
2023/01/14 06:50:33;;;;;;;18.10;5.60;;;;;;;;;;5092207;28;20190;-53
2023/01/14 06:52:59;;;;;;;14.90;5.57;;;;;;;;;;5092037;28;20240;-53
2023/01/14 06:55:25;;;;;;;16.63;6.10;;;;;;;;;;5091966;28;20195;-53
2023/01/14 06:57:51;;;;;;;21.13;6.20;;;;;;;;;;5091830;28;21000;-52
2023/01/14 07:00:19;;;;;;;19.77;5.97;;;;;;;;;;5091933;28;20201;-53
2023/01/14 07:02:45;;;;;;;20.57;6.37;;;;;;;;;;5091982;28;20670;-52
2023/01/14 07:05:11;;;;;;;19.03;6.23;;;;;;;;;;5091787;28;20316;-52
2023/01/14 07:07:37;;;;;;;14.77;6.37;;;;;;;;;;5091787;28;20640;-53
2023/01/14 07:10:03;;;;;;;20.60;7.03;;;;;;;;;;5091917;28;20557;-52
2023/01/14 07:12:29;;;;;;;16.77;6.13;;;;;;;;;;5091835;28;20199;-52
2023/01/14 07:14:55;;;;;;;16.83;6.33;;;;;;;;;;5091545;28;20432;-52
2023/01/14 07:17:22;;;;;;;21.33;7.07;;;;;;;;;;5091587;28;20191;-52
2023/01/14 07:19:48;;;;;;;22.27;7.20;;;;;;;;;;5091404;28;20213;-52
2023/01/14 07:22:14;;;;;;;13.67;6.13;;;;;;;;;;5091670;28;20226;-53
2023/01/14 07:24:40;;;;;;;18.60;9.07;;;;;;;;;;5091491;28;20233;-52
2023/01/14 07:27:06;;;;;;;17.67;7.03;;;;;;;;;;5091143;28;20230;-52
2023/01/14 07:29:32;;;;;;;21.60;6.93;;;;;;;;;;5091509;28;20234;-53
2023/01/14 07:31:58;;;;;;;20.43;6.23;;;;;;;;;;5090996;28;20698;-52
2023/01/14 07:34:26;;;;;;;22.10;6.47;;;;;;;;;;5091215;28;20222;-51
2023/01/14 07:36:52;;;;;;;18.33;6.00;;;;;;;;;;5091152;28;20262;-51
2023/01/14 07:39:18;;;;;;;20.87;6.33;;;;;;;;;;5091088;28;20230;-51
2023/01/14 07:41:44;;;;;;;23.13;6.17;;;;;;;;;;5090981;28;20231;-52
2023/01/14 07:44:10;;;;;;;18.97;6.80;;;;;;;;;;5090670;28;20206;-50
2023/01/14 07:46:36;;;;;;;17.90;6.60;;;;;;;;;;5090890;28;20532;-50
2023/01/14 07:49:02;;;;;;;19.20;6.70;;;;;;;;;;5090938;28;20273;-50
2023/01/14 07:51:29;;;;;;;18.90;5.90;;;;;;;;;;5090961;28;20286;-51
2023/01/14 07:53:55;;;;;;;16.23;5.83;;;;;;;;;;5090913;28;20202;-50
2023/01/14 07:56:21;;;;;;;20.07;6.03;;;;;;;;;;5090827;28;20198;-52
2023/01/14 07:58:48;;;;;;;14.93;5.27;;;;;;;;;;5090920;28;20194;-52
2023/01/14 08:01:14;;;;;;;20.57;5.80;;;;;;;;;;5090649;28;20737;-51
2023/01/14 08:03:40;;;;;;;22.33;5.60;;;;;;;;;;5088870;28;20199;-57
2023/01/14 08:06:06;;;;;;;18.20;6.00;;;;;;;;;;5090352;28;20199;-52
2023/01/14 08:08:34;;;;;;;18.10;5.37;;;;;;;;;;5090313;28;20302;-51
2023/01/14 08:11:01;;;;;;;17.93;5.10;;;;;;;;;;5090224;28;20759;-51
2023/01/14 08:13:27;;;;;;;16.30;4.93;;;;;;;;;;5090438;28;20191;-51
2023/01/14 08:15:57;;;;;;;25.10;5.70;;;;;;;;;;5090057;28;20206;-51
2023/01/14 08:18:23;;;;;;;16.33;4.60;;;;;;;;;;5089968;28;20195;-52
2023/01/14 08:20:56;;;;;;;17.30;5.03;;;;;;;;;;5090040;28;20219;-51
2023/01/14 08:23:22;;;;;;;18.17;5.07;;;;;;;;;;5090207;28;20199;-52
2023/01/14 08:25:49;;;;;;;21.60;5.40;;;;;;;;;;5089979;28;20561;-52
2023/01/14 08:28:15;;;;;;;15.60;4.73;;;;;;;;;;5089812;28;20293;-52
2023/01/14 08:30:41;;;;;;;18.47;4.60;;;;;;;;;;5090038;28;20224;-51
2023/01/14 08:33:07;;;;;;;20.53;4.63;;;;;;;;;;5089757;28;20222;-52
2023/01/14 08:35:33;;;;;;;26.97;4.80;;;;;;;;;;5090039;28;20313;-51
2023/01/14 08:37:59;;;;;;;20.67;5.00;;;;;;;;;;5089917;28;20528;-52
2023/01/14 08:40:25;;;;;;;17.83;4.40;;;;;;;;;;5089948;28;20207;-52
2023/01/14 08:42:52;;;;;;;14.23;4.03;;;;;;;;;;5090007;28;20559;-50
2023/01/14 08:45:18;;;;;;;21.27;4.73;;;;;;;;;;5089749;28;20206;-51
2023/01/14 08:47:44;;;;;;;14.40;4.73;;;;;;;;;;5089907;28;20264;-51
2023/01/14 08:50:11;;;;;;;14.27;4.30;;;;;;;;;;5089447;28;20198;-51
2023/01/14 08:52:37;;;;;;;21.00;4.40;;;;;;;;;;5089431;28;20853;-51
2023/01/14 08:55:03;;;;;;;18.23;4.33;;;;;;;;;;5089514;28;20252;-51
2023/01/14 08:57:29;;;;;;;17.00;4.47;;;;;;;;;;5089290;28;20179;-51
2023/01/14 08:59:56;;;;;;;16.60;4.20;;;;;;;;;;5089625;28;20433;-51
2023/01/14 09:02:22;;;;;;;12.07;4.33;;;;;;;;;;5089592;28;20226;-51
2023/01/14 09:04:48;;;;;;;13.87;4.07;;;;;;;;;;5089629;28;20443;-51
2023/01/14 09:18:14;;;;;;;16.37;4.27;;;;;;;;;;5089758;28;20202;-51
2023/01/14 09:20:42;;;;;;;15.37;3.80;;;;;;;;;;5089360;28;20481;-51
2023/01/14 09:23:09;;;;;;;12.80;3.20;;;;;;;;;;5089514;28;20199;-51
2023/01/14 09:25:35;;;;;;;16.17;3.40;;;;;;;;;;5089471;28;20199;-50
2023/01/14 09:28:01;;;;;;;16.47;4.47;;;;;;;;;;5089346;28;20298;-51
2023/01/14 09:30:27;;;;;;;12.47;3.70;;;;;;;;;;5089624;28;20209;-51
2023/01/14 09:32:54;;;;;;;15.87;4.30;;;;;;;;;;5089190;28;20191;-52
2023/01/14 09:35:20;;;;;;;14.90;3.10;;;;;;;;;;5089090;28;20241;-52
2023/01/14 09:37:46;;;;;;;8.83;2.70;;;;;;;;;;5089316;28;20207;-51
2023/01/14 09:40:13;;;;;;;13.07;3.43;;;;;;;;;;5089341;28;20225;-51
2023/01/14 09:42:40;;;;;;;10.27;3.17;;;;;;;;;;5089447;28;20256;-51
2023/01/14 09:45:10;;;;;;;14.83;3.40;;;;;;;;;;5089372;28;20205;-51
2023/01/14 09:47:37;;;;;;;15.30;3.60;;;;;;;;;;5089196;28;20209;-51
2023/01/14 09:50:06;;;;;;;13.13;3.30;;;;;;;;;;5089264;28;20197;-52
2023/01/14 09:52:43;;;;;;;8.07;2.80;;;;;;;;;;5089364;28;20686;-52
2023/01/14 09:55:11;;;;;;;12.87;3.00;;;;;;;;;;5089379;28;20669;-51
2023/01/14 09:57:42;;;;;;;8.70;2.97;;;;;;;;;;5089179;28;20665;-51
2023/01/14 10:00:21;;;;;;;11.73;3.07;;;;;;;;;;5088846;28;20203;-52
2023/01/14 10:02:49;;;;;;;10.57;3.10;;;;;;;;;;5089004;28;20665;-51
2023/01/14 10:05:19;;;;;;;10.00;2.90;;;;;;;;;;5089142;28;20621;-52
2023/01/14 10:07:46;;;;;;;16.90;3.70;;;;;;;;;;5091091;28;20199;-51
2023/01/14 10:10:20;;;;;;;13.10;2.90;;;;;;;;;;5092774;28;20195;-52
2023/01/14 10:12:47;;;;;;;8.10;3.07;;;;;;;;;;5092455;28;20272;-52
2023/01/14 10:15:19;;;;;;;12.77;3.10;;;;;;;;;;5092333;28;20198;-53
2023/01/14 10:17:48;;;;;;;9.93;3.40;;;;;;;;;;5092971;28;20610;-53
2023/01/14 10:20:16;;;;;;;9.20;2.90;;;;;;;;;;5092501;28;20217;-50
2023/01/14 10:22:46;;;;;;;7.73;3.50;;;;;;;;;;5092353;28;20231;-50
2023/01/14 10:25:14;;;;;;;9.07;2.73;;;;;;;;;;5092601;28;20207;-50
2023/01/14 10:27:41;;;;;;;10.97;3.00;;;;;;;;;;5092565;28;20207;-50
2023/01/14 10:30:15;;;;;;;7.40;3.00;;;;;;;;;;5092114;28;20189;-49
2023/01/14 10:32:41;;;;;;;10.90;3.33;;;;;;;;;;5092299;28;20277;-50
2023/01/14 10:35:12;;;;;;;7.60;2.47;;;;;;;;;;5092278;28;20245;-50
2023/01/14 10:37:38;;;;;;;8.33;2.87;;;;;;;;;;5092560;28;20276;-49
2023/01/14 10:40:14;;;;;;;11.03;2.87;;;;;;;;;;5091915;28;20661;-49
2023/01/14 10:42:40;;;;;;;9.37;2.80;;;;;;;;;;5092148;28;20558;-49
2023/01/14 10:45:11;;;;;;;10.07;2.63;;;;;;;;;;5091862;28;20679;-49
2023/01/14 10:47:36;;;;;;;9.67;2.80;;;;;;;;;;5091786;28;20194;-52
2023/01/14 10:50:06;;;;;;;13.90;4.10;;;;;;;;;;5091662;28;20534;-49
2023/01/14 10:52:33;;;;;;;15.07;3.20;;;;;;;;;;5091706;28;20199;-50
2023/01/14 10:55:00;;;;;;;11.57;2.80;;;;;;;;;;5091770;28;20191;-50
2023/01/14 10:57:28;;;;;;;10.43;2.93;;;;;;;;;;5092072;28;20529;-50
2023/01/14 10:59:55;;;;;;;11.00;2.93;;;;;;;;;;5091757;28;20661;-50
2023/01/14 11:02:23;;;;;;;10.60;3.00;;;;;;;;;;5091499;28;20901;-50
2023/01/14 11:04:49;;;;;;;8.33;2.70;;;;;;;;;;5091786;28;20199;-50
2023/01/14 11:07:19;;;;;;;12.83;3.13;;;;;;;;;;5091476;28;20891;-51
2023/01/14 11:09:45;;;;;;;8.60;2.70;;;;;;;;;;5091379;28;20514;-50
2023/01/14 11:12:24;;;;;;;11.33;3.10;;;;;;;;;;5091428;28;20483;-50
2023/01/14 11:14:51;;;;;;;11.70;3.07;;;;;;;;;;5091392;28;20230;-50
2023/01/14 11:17:22;;;;;;;11.00;3.43;;;;;;;;;;5091319;28;20445;-50
2023/01/14 11:19:48;;;;;;;15.10;3.63;;;;;;;;;;5090746;28;20429;-52
2023/01/14 11:22:14;;;;;;;11.10;3.37;;;;;;;;;;5091095;28;20508;-52
2023/01/14 11:24:40;;;;;;;12.77;3.60;;;;;;;;;;5091345;28;20218;-51
2023/01/14 11:27:13;;;;;;;11.67;3.03;;;;;;;;;;5090992;28;20433;-49
2023/01/14 11:29:43;;;;;;;12.93;2.63;;;;;;;;;;5091122;28;20278;-50
2023/01/14 11:32:11;;;;;;;8.43;2.53;;;;;;;;;;5090968;28;20433;-50
2023/01/14 11:34:40;;;;;;;10.53;3.27;;;;;;;;;;5091262;28;20439;-50
2023/01/14 11:37:16;;;;;;;9.93;3.03;;;;;;;;;;5090985;28;20611;-50
2023/01/14 11:39:46;;;;;;;6.33;2.50;;;;;;;;;;5091076;28;21014;-49
2023/01/14 11:42:22;;;;;;;15.67;2.97;;;;;;;;;;5090797;28;20545;-50
2023/01/14 11:44:56;;;;;;;14.70;3.43;;;;;;;;;;5090769;28;20505;-50
2023/01/14 11:47:23;;;;;;;14.60;3.47;;;;;;;;;;5091000;28;20469;-50
2023/01/14 11:49:50;;;;;;;14.73;3.60;;;;;;;;;;5090790;28;20615;-51
2023/01/14 11:52:18;;;;;;;10.60;2.93;;;;;;;;;;5090555;28;20205;-51
2023/01/14 11:54:52;;;;;;;14.33;3.23;;;;;;;;;;5090945;28;20927;-51
2023/01/14 11:57:20;;;;;;;14.03;3.30;;;;;;;;;;5090854;28;20786;-50
2023/01/14 11:59:49;;;;;;;6.97;2.57;;;;;;;;;;5090631;28;20958;-50
2023/01/14 12:02:16;;;;;;;9.97;2.73;;;;;;;;;;5090216;28;20765;-51
2023/01/14 12:04:47;;;;;;;11.57;3.57;;;;;;;;;;5090655;28;20931;-52
2023/01/14 12:07:17;;;;;;;9.43;3.07;;;;;;;;;;5090239;28;20449;-51
2023/01/14 12:09:47;;;;;;;9.77;2.43;;;;;;;;;;5090588;28;20440;-52
2023/01/14 12:12:15;;;;;;;10.77;2.87;;;;;;;;;;5090312;28;20426;-52
2023/01/14 12:17:30;;;;;;;9.00;2.90;;;;;;;;;;5090492;28;20466;-52
2023/01/14 12:19:59;;;;;;;11.00;3.40;;;;;;;;;;5090361;28;20464;-51
2023/01/14 12:22:28;;;;;;;11.33;3.23;;;;;;;;;;5090316;28;20475;-51
2023/01/14 12:24:58;;;;;;;10.27;3.10;;;;;;;;;;5090303;28;20480;-51
2023/01/14 12:27:44;;;;;;;15.20;2.73;;;;;;;;;;5089845;28;20554;-52
2023/01/14 12:30:16;;;;;;;11.50;3.23;;;;;;;;;;5089449;28;20902;-52
2023/01/14 12:32:43;;;;;;;8.23;2.80;;;;;;;;;;5090031;28;20440;-51
2023/01/14 12:35:14;;;;;;;13.07;2.80;;;;;;;;;;5089714;28;20610;-51
2023/01/14 12:37:46;;;;;;;12.13;3.10;;;;;;;;;;5089851;28;20490;-51
2023/01/14 12:45:46;;;;;;;8.80;3.00;;;;;;;;;;5089743;28;20944;-51
2023/01/14 12:48:14;;;;;;;6.63;3.03;;;;;;;;;;5089725;28;20299;-51
2023/01/14 12:50:47;;;;;;;6.70;2.63;;;;;;;;;;5089634;28;20440;-51
2023/01/14 12:53:16;;;;;;;11.33;3.50;;;;;;;;;;5089611;28;20199;-51
2023/01/14 12:55:46;;;;;;;6.27;2.77;;;;;;;;;;5089759;28;21265;-51
2023/01/14 12:58:17;;;;;;;6.27;2.60;;;;;;;;;;5089843;28;20429;-51
2023/01/14 13:00:49;;;;;;;8.43;3.53;;;;;;;;;;5089686;28;20208;-51
2023/01/14 13:03:18;;;;;;;9.63;3.30;;;;;;;;;;5089932;28;20233;-52
2023/01/14 13:05:46;;;;;;;13.00;3.53;;;;;;;;;;5089698;28;20907;-50
2023/01/14 13:08:18;;;;;;;8.47;3.23;;;;;;;;;;5089512;28;20475;-51
2023/01/14 13:10:45;;;;;;;8.17;2.90;;;;;;;;;;5089844;28;20246;-51
2023/01/14 13:13:18;;;;;;;13.13;3.10;;;;;;;;;;5089754;28;20926;-51
2023/01/14 13:15:44;;;;;;;10.80;3.33;;;;;;;;;;5089352;28;20611;-51
2023/01/14 13:18:25;;;;;;;8.10;3.80;;;;;;;;;;5089236;28;20435;-50
2023/01/14 13:20:52;;;;;;;5.93;2.90;;;;;;;;;;5089290;28;20772;-50
2023/01/14 13:23:37;;;;;;;7.87;3.20;;;;;;;;;;5089460;28;20210;-50
2023/01/14 13:26:03;;;;;;;6.70;3.43;;;;;;;;;;5089384;28;20421;-51
2023/01/14 13:28:31;;;;;;;7.03;3.00;;;;;;;;;;5089618;28;20462;-51
2023/01/14 13:31:12;;;;;;;7.90;3.00;;;;;;;;;;5089210;28;20653;-50
2023/01/14 13:33:39;;;;;;;8.63;3.20;;;;;;;;;;5089363;28;20209;-50
2023/01/14 13:36:18;;;;;;;8.10;3.37;;;;;;;;;;5089259;28;20581;-51
2023/01/14 13:38:46;;;;;;;5.50;3.13;;;;;;;;;;5089100;28;20876;-51
2023/01/14 13:41:29;;;;;;;6.20;3.10;;;;;;;;;;5089152;28;20701;-51
2023/01/14 13:43:56;;;;;;;9.07;3.23;;;;;;;;;;5093248;28;20195;-50
2023/01/14 13:46:23;;;;;;;6.97;2.83;;;;;;;;;;5093443;28;20565;-51
2023/01/14 13:48:51;;;;;;;10.57;2.90;;;;;;;;;;5093108;28;20252;-51
2023/01/14 13:51:20;;;;;;;6.37;2.57;;;;;;;;;;5092930;28;20187;-50
2023/01/14 13:53:51;;;;;;;5.63;3.40;;;;;;;;;;5092966;28;20452;-51
2023/01/14 13:56:20;;;;;;;4.47;2.57;;;;;;;;;;5092858;28;20488;-50
2023/01/14 13:58:48;;;;;;;6.83;3.07;;;;;;;;;;5093365;28;20194;-50
2023/01/14 14:01:22;;;;;;;5.37;2.50;;;;;;;;;;5092641;28;20227;-51
2023/01/14 14:03:48;;;;;;;4.13;2.50;;;;;;;;;;5092775;28;20199;-51
2023/01/14 14:06:34;;;;;;;5.57;2.40;;;;;;;;;;5092731;28;20290;-50
2023/01/14 14:09:04;;;;;;;6.40;2.37;;;;;;;;;;5092945;28;20195;-50
2023/01/14 14:11:33;;;;;;;6.97;2.50;;;;;;;;;;5092893;28;20214;-51
2023/01/14 14:14:05;;;;;;;4.63;2.00;;;;;;;;;;5092647;28;20195;-50
2023/01/14 14:16:32;;;;;;;3.37;2.20;;;;;;;;;;5092480;28;20230;-50
2023/01/14 14:19:01;;;;;;;3.33;1.93;;;;;;;;;;5092636;28;20191;-51
2023/01/14 14:21:32;;;;;;;6.43;2.40;;;;;;;;;;5092383;28;20231;-51
2023/01/14 14:24:00;;;;;;;5.50;2.43;;;;;;;;;;5092453;28;20438;-51
2023/01/14 14:26:29;;;;;;;3.13;1.80;;;;;;;;;;5092408;28;20205;-51
2023/01/14 14:28:57;;;;;;;4.57;2.07;;;;;;;;;;5092329;28;20195;-51
2023/01/14 14:31:26;;;;;;;7.83;1.90;;;;;;;;;;5092077;28;20199;-50
2023/01/14 14:34:00;;;;;;;2.93;2.20;;;;;;;;;;5092200;28;20214;-51
2023/01/14 14:36:27;;;;;;;2.23;1.70;;;;;;;;;;5091842;28;20261;-51
2023/01/14 14:38:53;;;;;;;3.23;1.87;;;;;;;;;;5092046;28;20449;-50
2023/01/14 14:41:22;;;;;;;2.80;1.53;;;;;;;;;;5092047;28;20717;-51
2023/01/14 14:43:56;;;;;;;2.87;1.63;;;;;;;;;;5092204;28;20206;-51
2023/01/14 14:46:23;;;;;;;1.70;1.60;;;;;;;;;;5091995;28;20214;-51
2023/01/14 14:48:49;;;;;;;4.30;1.77;;;;;;;;;;5091955;28;20552;-51
2023/01/14 14:51:18;;;;;;;2.87;1.77;;;;;;;;;;5091894;28;20221;-51
2023/01/14 14:53:45;;;;;;;4.17;1.70;;;;;;;;;;5091086;28;20199;-51
2023/01/14 14:56:14;;;;;;;2.90;1.80;;;;;;;;;;5091722;28;20199;-51
2023/01/14 14:58:43;;;;;;;2.43;1.70;;;;;;;;;;5091732;28;20199;-51
2023/01/14 15:01:10;;;;;;;2.30;1.50;;;;;;;;;;5091554;28;20596;-51
2023/01/14 15:03:37;;;;;;;1.90;1.60;;;;;;;;;;5091630;28;20745;-50
2023/01/14 15:06:07;;;;;;;3.57;1.80;;;;;;;;;;5091459;28;20682;-51
2023/01/14 15:08:35;;;;;;;2.60;1.70;;;;;;;;;;5091682;28;20273;-51
2023/01/14 15:11:02;;;;;;;2.47;1.50;;;;;;;;;;5091677;28;20639;-51
2023/01/14 15:13:29;;;;;;;1.93;1.60;;;;;;;;;;5091362;28;20221;-51